Illinois River (Oklahoma), Tahlequah (07196500)

StateOklahomaLatestGood (647 cfs)
RiverIllinois RiverRatingObservedEstimated
Updated2020-08-11 19:30 (22 minutes ago)Flood - The river is flooding. Obstacles can be treacherous or deadly. The river should be avoided at this stage for casual trips and definitely for the inexperienced. Trips should be attempted only with protective gear and equipment.Flood(none)3296
Discharge647 cfs (median: 231 cfs)High - The river is high and potentially dangerous, especially for the young and / or inexperienced. Normal stream obstacles are sometimes difficult to navigate. Extended distances can be attempted, but canoe travel may not be advisable.High(none)1679
Height5.33 feetGood - Conditions are ideal for a canoe or kayak. Boats typically will drag on fewer than one-quarter of riffles, if at all, and portages are unnecessary or rare. Normal float lengths can be attempted without a problem.Good300901
TrendFalling (falling over 24 hours)Low - River is low but can still be floated. Some riffles are okay but most come with significant dragging and might need a portage. Float lengths should be reduced to accommodate low flow, dragging, and portages.Low(none)587
USGSExternal icon USGS Site (External icon Google Maps)Poor - River is too low to float comfortably. Most or all riffles will drag or must be portaged and some obstacles (such as slick shelf rock) cause undue problems. Avoid the river at this stage for casual paddling trips.Poor(none)229

Trending Data

Plot Image

Trips for Illinois River (Oklahoma), Tahlequah (07196500)

DateStartEndDistanceConditionDischargeHeightFishingDetails

A total of 0 rows are displayed.

Condition Descriptions

Fishing Conditions

Fish Species

Notes

Classic Trip List

The classic River Trips application is still available for use. It is updated with the new system using a data retrofit. It is no longer maintained. The original River Trips application is no longer updated (as of 1 Dec 2016) but can be checked for errors or for the condition of the data before it was converted to the new system.

Gauge Data Table

ObservationHeightDischargeMaximum
Discharge
Minimum
Discharge
Mean
Discharge
P05P10P20P25P50
(Median)
P75P80P90P95
2020-08-11 19:30 5.33 647 5550 (1948) 12 (1936) 411 42 94 131 146 231 363 412 748 1660
2020-08-11 18:30 5.34 653 5550 (1948) 12 (1936) 411 42 94 131 146 231 363 412 748 1660
2020-08-11 17:30 5.34 653 5550 (1948) 12 (1936) 411 42 94 131 146 231 363 412 748 1660
2020-08-11 16:30 5.35 659 5550 (1948) 12 (1936) 411 42 94 131 146 231 363 412 748 1660
2020-08-11 15:30 5.37 670 5550 (1948) 12 (1936) 411 42 94 131 146 231 363 412 748 1660
2020-08-11 14:30 5.38 676 5550 (1948) 12 (1936) 411 42 94 131 146 231 363 412 748 1660
2020-08-11 13:30 5.40 688 5550 (1948) 12 (1936) 411 42 94 131 146 231 363 412 748 1660
2020-08-11 12:30 5.26 608 5550 (1948) 12 (1936) 411 42 94 131 146 231 363 412 748 1660
2020-08-11 11:30 5.31 636 5550 (1948) 12 (1936) 411 42 94 131 146 231 363 412 748 1660
2020-08-11 10:30 5.32 641 5550 (1948) 12 (1936) 411 42 94 131 146 231 363 412 748 1660
2020-08-11 09:30 5.32 641 5550 (1948) 12 (1936) 411 42 94 131 146 231 363 412 748 1660
2020-08-11 08:30 5.33 647 5550 (1948) 12 (1936) 411 42 94 131 146 231 363 412 748 1660
2020-08-11 07:30 5.34 653 5550 (1948) 12 (1936) 411 42 94 131 146 231 363 412 748 1660
2020-08-11 06:30 5.34 653 5550 (1948) 12 (1936) 411 42 94 131 146 231 363 412 748 1660
2020-08-11 05:30 5.35 659 5550 (1948) 12 (1936) 411 42 94 131 146 231 363 412 748 1660
2020-08-11 04:30 5.35 659 5550 (1948) 12 (1936) 411 42 94 131 146 231 363 412 748 1660
2020-08-11 03:30 5.36 664 5550 (1948) 12 (1936) 411 42 94 131 146 231 363 412 748 1660
2020-08-11 02:30 5.36 664 5550 (1948) 12 (1936) 411 42 94 131 146 231 363 412 748 1660
2020-08-11 01:30 5.36 664 5550 (1948) 12 (1936) 411 42 94 131 146 231 363 412 748 1660
2020-08-11 00:30 5.36 664 5550 (1948) 12 (1936) 411 42 94 131 146 231 363 412 748 1660
2020-08-10 23:30 5.37 670 5850 (1948) 12 (1936) 430 45 93 121 134 217 358 416 899 1380
2020-08-10 22:30 5.37 670 5850 (1948) 12 (1936) 430 45 93 121 134 217 358 416 899 1380
2020-08-10 21:30 5.37 670 5850 (1948) 12 (1936) 430 45 93 121 134 217 358 416 899 1380
2020-08-10 20:30 5.38 676 5850 (1948) 12 (1936) 430 45 93 121 134 217 358 416 899 1380
2020-08-10 19:30 5.38 676 5850 (1948) 12 (1936) 430 45 93 121 134 217 358 416 899 1380
2020-08-10 18:30 5.38 676 5850 (1948) 12 (1936) 430 45 93 121 134 217 358 416 899 1380
2020-08-10 17:30 5.38 676 5850 (1948) 12 (1936) 430 45 93 121 134 217 358 416 899 1380
2020-08-10 16:30 5.39 682 5850 (1948) 12 (1936) 430 45 93 121 134 217 358 416 899 1380
2020-08-10 15:30 5.39 682 5850 (1948) 12 (1936) 430 45 93 121 134 217 358 416 899 1380
2020-08-10 14:30 5.40 688 5850 (1948) 12 (1936) 430 45 93 121 134 217 358 416 899 1380
2020-08-10 13:30 5.41 694 5850 (1948) 12 (1936) 430 45 93 121 134 217 358 416 899 1380
2020-08-10 12:30 5.42 700 5850 (1948) 12 (1936) 430 45 93 121 134 217 358 416 899 1380
2020-08-10 11:30 5.43 706 5850 (1948) 12 (1936) 430 45 93 121 134 217 358 416 899 1380
2020-08-10 10:30 5.44 712 5850 (1948) 12 (1936) 430 45 93 121 134 217 358 416 899 1380
2020-08-10 09:30 5.44 712 5850 (1948) 12 (1936) 430 45 93 121 134 217 358 416 899 1380
2020-08-10 08:30 5.44 712 5850 (1948) 12 (1936) 430 45 93 121 134 217 358 416 899 1380
2020-08-10 07:30 5.45 718 5850 (1948) 12 (1936) 430 45 93 121 134 217 358 416 899 1380
2020-08-10 06:30 5.46 724 5850 (1948) 12 (1936) 430 45 93 121 134 217 358 416 899 1380
2020-08-10 05:30 5.46 724 5850 (1948) 12 (1936) 430 45 93 121 134 217 358 416 899 1380
2020-08-10 04:30 5.47 730 5850 (1948) 12 (1936) 430 45 93 121 134 217 358 416 899 1380
2020-08-10 02:30 5.48 737 5850 (1948) 12 (1936) 430 45 93 121 134 217 358 416 899 1380
2020-08-10 01:30 5.49 743 5850 (1948) 12 (1936) 430 45 93 121 134 217 358 416 899 1380
2020-08-09 23:30 5.49 743 6090 (2013) 11 (1936) 425 46 89 130 134 233 375 427 706 1590
2020-08-09 22:30 5.50 749 6090 (2013) 11 (1936) 425 46 89 130 134 233 375 427 706 1590
2020-08-09 21:30 5.50 749 6090 (2013) 11 (1936) 425 46 89 130 134 233 375 427 706 1590
2020-08-09 20:30 5.51 756 6090 (2013) 11 (1936) 425 46 89 130 134 233 375 427 706 1590
2020-08-09 19:30 5.52 762 6090 (2013) 11 (1936) 425 46 89 130 134 233 375 427 706 1590
2020-08-09 18:30 5.53 768 6090 (2013) 11 (1936) 425 46 89 130 134 233 375 427 706 1590
2020-08-09 17:30 5.52 762 6090 (2013) 11 (1936) 425 46 89 130 134 233 375 427 706 1590
2020-08-09 16:30 5.52 762 6090 (2013) 11 (1936) 425 46 89 130 134 233 375 427 706 1590
2020-08-09 15:30 5.54 775 6090 (2013) 11 (1936) 425 46 89 130 134 233 375 427 706 1590
2020-08-09 14:30 5.55 781 6090 (2013) 11 (1936) 425 46 89 130 134 233 375 427 706 1590
2020-08-09 13:30 5.54 775 6090 (2013) 11 (1936) 425 46 89 130 134 233 375 427 706 1590
2020-08-09 12:30 5.56 788 6090 (2013) 11 (1936) 425 46 89 130 134 233 375 427 706 1590
2020-08-09 11:30 5.56 788 6090 (2013) 11 (1936) 425 46 89 130 134 233 375 427 706 1590
2020-08-09 10:30 5.56 788 6090 (2013) 11 (1936) 425 46 89 130 134 233 375 427 706 1590
2020-08-09 09:30 5.56 788 6090 (2013) 11 (1936) 425 46 89 130 134 233 375 427 706 1590
2020-08-09 08:30 5.55 781 6090 (2013) 11 (1936) 425 46 89 130 134 233 375 427 706 1590
2020-08-09 07:30 5.54 775 6090 (2013) 11 (1936) 425 46 89 130 134 233 375 427 706 1590
2020-08-09 06:30 5.52 762 6090 (2013) 11 (1936) 425 46 89 130 134 233 375 427 706 1590
2020-08-09 05:30 5.51 756 6090 (2013) 11 (1936) 425 46 89 130 134 233 375 427 706 1590
2020-08-09 04:30 5.48 737 6090 (2013) 11 (1936) 425 46 89 130 134 233 375 427 706 1590
2020-08-09 03:30 5.46 724 6090 (2013) 11 (1936) 425 46 89 130 134 233 375 427 706 1590
2020-08-09 02:30 5.43 706 6090 (2013) 11 (1936) 425 46 89 130 134 233 375 427 706 1590
2020-08-09 01:30 5.41 694 6090 (2013) 11 (1936) 425 46 89 130 134 233 375 427 706 1590
2020-08-09 00:30 5.39 682 6090 (2013) 11 (1936) 425 46 89 130 134 233 375 427 706 1590
2020-08-08 23:30 5.39 682 2000 (1950) 13 (1936) 338 48 86 123 148 245 384 434 673 1000
2020-08-08 22:30 5.38 676 2000 (1950) 13 (1936) 338 48 86 123 148 245 384 434 673 1000
2020-08-08 21:30 5.38 676 2000 (1950) 13 (1936) 338 48 86 123 148 245 384 434 673 1000
2020-08-08 20:30 5.39 682 2000 (1950) 13 (1936) 338 48 86 123 148 245 384 434 673 1000
2020-08-08 19:30 5.39 682 2000 (1950) 13 (1936) 338 48 86 123 148 245 384 434 673 1000
2020-08-08 18:30 5.40 688 2000 (1950) 13 (1936) 338 48 86 123 148 245 384 434 673 1000
2020-08-08 17:30 5.40 688 2000 (1950) 13 (1936) 338 48 86 123 148 245 384 434 673 1000
2020-08-08 16:30 5.40 688 2000 (1950) 13 (1936) 338 48 86 123 148 245 384 434 673 1000
2020-08-08 15:30 5.42 700 2000 (1950) 13 (1936) 338 48 86 123 148 245 384 434 673 1000
2020-08-08 14:30 5.42 700 2000 (1950) 13 (1936) 338 48 86 123 148 245 384 434 673 1000
2020-08-08 12:30 5.44 712 2000 (1950) 13 (1936) 338 48 86 123 148 245 384 434 673 1000
2020-08-08 11:30 5.43 706 2000 (1950) 13 (1936) 338 48 86 123 148 245 384 434 673 1000
2020-08-08 10:30 5.44 712 2000 (1950) 13 (1936) 338 48 86 123 148 245 384 434 673 1000
2020-08-08 09:30 5.45 718 2000 (1950) 13 (1936) 338 48 86 123 148 245 384 434 673 1000
2020-08-08 08:30 5.46 724 2000 (1950) 13 (1936) 338 48 86 123 148 245 384 434 673 1000
2020-08-08 07:30 5.47 730 2000 (1950) 13 (1936) 338 48 86 123 148 245 384 434 673 1000
2020-08-08 06:30 5.48 737 2000 (1950) 13 (1936) 338 48 86 123 148 245 384 434 673 1000
2020-08-08 05:30 5.49 743 2000 (1950) 13 (1936) 338 48 86 123 148 245 384 434 673 1000
2020-08-08 04:30 5.49 743 2000 (1950) 13 (1936) 338 48 86 123 148 245 384 434 673 1000
2020-08-08 03:30 5.51 756 2000 (1950) 13 (1936) 338 48 86 123 148 245 384 434 673 1000
2020-08-08 02:30 5.52 762 2000 (1950) 13 (1936) 338 48 86 123 148 245 384 434 673 1000
2020-08-08 00:30 5.55 781 2000 (1950) 13 (1936) 338 48 86 123 148 245 384 434 673 1000
2020-08-07 23:30 5.57 794 4520 (1950) 12 (1954) 384 50 85 124 151 255 398 428 723 1050
2020-08-07 22:30 5.59 807 4520 (1950) 12 (1954) 384 50 85 124 151 255 398 428 723 1050
2020-08-07 21:30 5.62 827 4520 (1950) 12 (1954) 384 50 85 124 151 255 398 428 723 1050
2020-08-07 20:30 5.64 841 4520 (1950) 12 (1954) 384 50 85 124 151 255 398 428 723 1050
2020-08-07 19:30 5.67 861 4520 (1950) 12 (1954) 384 50 85 124 151 255 398 428 723 1050
2020-08-07 18:30 5.70 882 4520 (1950) 12 (1954) 384 50 85 124 151 255 398 428 723 1050
2020-08-07 17:30 5.70 882 4520 (1950) 12 (1954) 384 50 85 124 151 255 398 428 723 1050
2020-08-07 16:30 5.70 882 4520 (1950) 12 (1954) 384 50 85 124 151 255 398 428 723 1050
2020-08-07 15:30 5.65 848 4520 (1950) 12 (1954) 384 50 85 124 151 255 398 428 723 1050
2020-08-07 14:30 5.58 801 4520 (1950) 12 (1954) 384 50 85 124 151 255 398 428 723 1050
2020-08-07 13:30 5.51 756 4520 (1950) 12 (1954) 384 50 85 124 151 255 398 428 723 1050
2020-08-07 12:30 5.46 724 4520 (1950) 12 (1954) 384 50 85 124 151 255 398 428 723 1050
2020-08-07 11:30 5.46 724 4520 (1950) 12 (1954) 384 50 85 124 151 255 398 428 723 1050
2020-08-07 10:30 5.48 737 4520 (1950) 12 (1954) 384 50 85 124 151 255 398 428 723 1050
2020-08-07 09:30 5.44 712 4520 (1950) 12 (1954) 384 50 85 124 151 255 398 428 723 1050
2020-08-07 08:30 5.42 700 4520 (1950) 12 (1954) 384 50 85 124 151 255 398 428 723 1050
2020-08-07 07:30 5.34 653 4520 (1950) 12 (1954) 384 50 85 124 151 255 398 428 723 1050
2020-08-07 06:30 5.35 659 4520 (1950) 12 (1954) 384 50 85 124 151 255 398 428 723 1050
2020-08-07 05:30 5.36 664 4520 (1950) 12 (1954) 384 50 85 124 151 255 398 428 723 1050
2020-08-07 04:30 5.37 670 4520 (1950) 12 (1954) 384 50 85 124 151 255 398 428 723 1050
2020-08-07 03:30 5.38 676 4520 (1950) 12 (1954) 384 50 85 124 151 255 398 428 723 1050
2020-08-07 02:30 5.38 676 4520 (1950) 12 (1954) 384 50 85 124 151 255 398 428 723 1050
2020-08-07 01:30 5.39 682 4520 (1950) 12 (1954) 384 50 85 124 151 255 398 428 723 1050
2020-08-07 00:30 5.39 682 4520 (1950) 12 (1954) 384 50 85 124 151 255 398 428 723 1050
2020-08-06 23:30 5.39 682 3450 (1992) 12 (1936) 361 52 86 124 148 256 374 430 602 1210
2020-08-06 22:30 5.38 676 3450 (1992) 12 (1936) 361 52 86 124 148 256 374 430 602 1210
2020-08-06 21:30 5.37 670 3450 (1992) 12 (1936) 361 52 86 124 148 256 374 430 602 1210
2020-08-06 20:30 5.36 664 3450 (1992) 12 (1936) 361 52 86 124 148 256 374 430 602 1210
2020-08-06 19:30 5.35 659 3450 (1992) 12 (1936) 361 52 86 124 148 256 374 430 602 1210
2020-08-06 18:30 5.34 653 3450 (1992) 12 (1936) 361 52 86 124 148 256 374 430 602 1210
2020-08-06 17:30 5.33 647 3450 (1992) 12 (1936) 361 52 86 124 148 256 374 430 602 1210
2020-08-06 16:30 5.30 630 3450 (1992) 12 (1936) 361 52 86 124 148 256 374 430 602 1210
2020-08-06 15:30 5.30 630 3450 (1992) 12 (1936) 361 52 86 124 148 256 374 430 602 1210
2020-08-06 14:30 5.31 636 3450 (1992) 12 (1936) 361 52 86 124 148 256 374 430 602 1210
2020-08-06 13:30 5.31 636 3450 (1992) 12 (1936) 361 52 86 124 148 256 374 430 602 1210
2020-08-06 12:30 5.32 641 3450 (1992) 12 (1936) 361 52 86 124 148 256 374 430 602 1210
2020-08-06 11:30 5.32 641 3450 (1992) 12 (1936) 361 52 86 124 148 256 374 430 602 1210
2020-08-06 10:30 5.32 641 3450 (1992) 12 (1936) 361 52 86 124 148 256 374 430 602 1210
2020-08-06 09:30 5.33 647 3450 (1992) 12 (1936) 361 52 86 124 148 256 374 430 602 1210
2020-08-06 08:30 5.33 647 3450 (1992) 12 (1936) 361 52 86 124 148 256 374 430 602 1210
2020-08-06 07:30 5.34 653 3450 (1992) 12 (1936) 361 52 86 124 148 256 374 430 602 1210
2020-08-06 06:30 5.34 653 3450 (1992) 12 (1936) 361 52 86 124 148 256 374 430 602 1210
2020-08-06 05:30 5.35 659 3450 (1992) 12 (1936) 361 52 86 124 148 256 374 430 602 1210
2020-08-06 04:30 5.34 653 3450 (1992) 12 (1936) 361 52 86 124 148 256 374 430 602 1210
2020-08-06 03:30 5.35 659 3450 (1992) 12 (1936) 361 52 86 124 148 256 374 430 602 1210
2020-08-06 02:30 5.35 659 3450 (1992) 12 (1936) 361 52 86 124 148 256 374 430 602 1210
2020-08-06 01:30 5.35 659 3450 (1992) 12 (1936) 361 52 86 124 148 256 374 430 602 1210
2020-08-06 00:30 5.35 659 3450 (1992) 12 (1936) 361 52 86 124 148 256 374 430 602 1210
2020-08-05 23:30 5.35 659 2750 (1992) 12 (1936) 359 55 88 128 139 237 351 381 637 1590
2020-08-05 22:30 5.35 659 2750 (1992) 12 (1936) 359 55 88 128 139 237 351 381 637 1590
2020-08-05 21:30 5.35 659 2750 (1992) 12 (1936) 359 55 88 128 139 237 351 381 637 1590
2020-08-05 20:30 5.35 659 2750 (1992) 12 (1936) 359 55 88 128 139 237 351 381 637 1590
2020-08-05 19:30 5.35 659 2750 (1992) 12 (1936) 359 55 88 128 139 237 351 381 637 1590
2020-08-05 18:30 5.35 659 2750 (1992) 12 (1936) 359 55 88 128 139 237 351 381 637 1590
2020-08-05 17:30 5.35 659 2750 (1992) 12 (1936) 359 55 88 128 139 237 351 381 637 1590
2020-08-05 16:30 5.36 664 2750 (1992) 12 (1936) 359 55 88 128 139 237 351 381 637 1590
2020-08-05 15:30 5.36 664 2750 (1992) 12 (1936) 359 55 88 128 139 237 351 381 637 1590
2020-08-05 14:30 5.36 664 2750 (1992) 12 (1936) 359 55 88 128 139 237 351 381 637 1590
2020-08-05 13:30 5.37 670 2750 (1992) 12 (1936) 359 55 88 128 139 237 351 381 637 1590
2020-08-05 12:30 5.37 670 2750 (1992) 12 (1936) 359 55 88 128 139 237 351 381 637 1590
2020-08-05 11:30 5.37 670 2750 (1992) 12 (1936) 359 55 88 128 139 237 351 381 637 1590
2020-08-05 10:30 5.38 676 2750 (1992) 12 (1936) 359 55 88 128 139 237 351 381 637 1590
2020-08-05 09:30 5.38 676 2750 (1992) 12 (1936) 359 55 88 128 139 237 351 381 637 1590
2020-08-05 08:30 5.38 676 2750 (1992) 12 (1936) 359 55 88 128 139 237 351 381 637 1590
2020-08-05 07:30 5.39 682 2750 (1992) 12 (1936) 359 55 88 128 139 237 351 381 637 1590
2020-08-05 06:30 5.39 682 2750 (1992) 12 (1936) 359 55 88 128 139 237 351 381 637 1590
2020-08-05 05:30 5.39 682 2750 (1992) 12 (1936) 359 55 88 128 139 237 351 381 637 1590
2020-08-05 04:30 5.39 682 2750 (1992) 12 (1936) 359 55 88 128 139 237 351 381 637 1590
2020-08-05 03:30 5.39 682 2750 (1992) 12 (1936) 359 55 88 128 139 237 351 381 637 1590
2020-08-05 02:30 5.40 688 2750 (1992) 12 (1936) 359 55 88 128 139 237 351 381 637 1590
2020-08-05 01:30 5.40 688 2750 (1992) 12 (1936) 359 55 88 128 139 237 351 381 637 1590
2020-08-04 23:30 5.40 688 2260 (1958) 14 (1936) 346 57 89 132 144 233 370 409 666 1180
2020-08-04 22:30 5.40 688 2260 (1958) 14 (1936) 346 57 89 132 144 233 370 409 666 1180
2020-08-04 21:30 5.41 694 2260 (1958) 14 (1936) 346 57 89 132 144 233 370 409 666 1180
2020-08-04 20:30 5.41 694 2260 (1958) 14 (1936) 346 57 89 132 144 233 370 409 666 1180
2020-08-04 19:30 5.41 694 2260 (1958) 14 (1936) 346 57 89 132 144 233 370 409 666 1180
2020-08-04 18:30 5.39 682 2260 (1958) 14 (1936) 346 57 89 132 144 233 370 409 666 1180
2020-08-04 17:30 5.40 688 2260 (1958) 14 (1936) 346 57 89 132 144 233 370 409 666 1180
2020-08-04 16:30 5.42 700 2260 (1958) 14 (1936) 346 57 89 132 144 233 370 409 666 1180
2020-08-04 15:30 5.38 676 2260 (1958) 14 (1936) 346 57 89 132 144 233 370 409 666 1180
2020-08-04 14:30 5.43 706 2260 (1958) 14 (1936) 346 57 89 132 144 233 370 409 666 1180
2020-08-04 13:30 5.44 712 2260 (1958) 14 (1936) 346 57 89 132 144 233 370 409 666 1180
2020-08-04 12:30 5.44 712 2260 (1958) 14 (1936) 346 57 89 132 144 233 370 409 666 1180
2020-08-04 11:30 5.45 718 2260 (1958) 14 (1936) 346 57 89 132 144 233 370 409 666 1180
2020-08-04 10:30 5.46 724 2260 (1958) 14 (1936) 346 57 89 132 144 233 370 409 666 1180
2020-08-04 09:30 5.45 718 2260 (1958) 14 (1936) 346 57 89 132 144 233 370 409 666 1180
2020-08-04 08:30 5.46 724 2260 (1958) 14 (1936) 346 57 89 132 144 233 370 409 666 1180
2020-08-04 07:30 5.47 730 2260 (1958) 14 (1936) 346 57 89 132 144 233 370 409 666 1180
2020-08-04 06:30 5.48 737 2260 (1958) 14 (1936) 346 57 89 132 144 233 370 409 666 1180
2020-08-04 05:30 5.48 737 2260 (1958) 14 (1936) 346 57 89 132 144 233 370 409 666 1180
2020-08-04 04:30 5.49 743 2260 (1958) 14 (1936) 346 57 89 132 144 233 370 409 666 1180
2020-08-04 03:30 5.49 743 2260 (1958) 14 (1936) 346 57 89 132 144 233 370 409 666 1180
2020-08-04 02:30 5.49 743 2260 (1958) 14 (1936) 346 57 89 132 144 233 370 409 666 1180
2020-08-04 01:30 5.49 743 2260 (1958) 14 (1936) 346 57 89 132 144 233 370 409 666 1180
2020-08-04 00:30 5.50 749 2260 (1958) 14 (1936) 346 57 89 132 144 233 370 409 666 1180
2020-08-03 23:30 5.50 749 4010 (1962) 14 (1936) 402 57 89 132 146 247 393 436 647 1430
2020-08-03 22:30 5.50 749 4010 (1962) 14 (1936) 402 57 89 132 146 247 393 436 647 1430
2020-08-03 21:30 5.51 756 4010 (1962) 14 (1936) 402 57 89 132 146 247 393 436 647 1430
2020-08-03 20:30 5.51 756 4010 (1962) 14 (1936) 402 57 89 132 146 247 393 436 647 1430
2020-08-03 19:30 5.52 762 4010 (1962) 14 (1936) 402 57 89 132 146 247 393 436 647 1430
2020-08-03 18:30 5.52 762 4010 (1962) 14 (1936) 402 57 89 132 146 247 393 436 647 1430
2020-08-03 17:30 5.53 768 4010 (1962) 14 (1936) 402 57 89 132 146 247 393 436 647 1430
2020-08-03 16:30 5.53 768 4010 (1962) 14 (1936) 402 57 89 132 146 247 393 436 647 1430
2020-08-03 15:30 5.53 768 4010 (1962) 14 (1936) 402 57 89 132 146 247 393 436 647 1430
2020-08-03 14:30 5.54 775 4010 (1962) 14 (1936) 402 57 89 132 146 247 393 436 647 1430
2020-08-03 13:30 5.55 781 4010 (1962) 14 (1936) 402 57 89 132 146 247 393 436 647 1430
2020-08-03 12:30 5.56 788 4010 (1962) 14 (1936) 402 57 89 132 146 247 393 436 647 1430
2020-08-03 11:30 5.56 788 4010 (1962) 14 (1936) 402 57 89 132 146 247 393 436 647 1430
2020-08-03 10:30 5.58 801 4010 (1962) 14 (1936) 402 57 89 132 146 247 393 436 647 1430
2020-08-03 09:30 5.58 801 4010 (1962) 14 (1936) 402 57 89 132 146 247 393 436 647 1430
2020-08-03 08:30 5.59 807 4010 (1962) 14 (1936) 402 57 89 132 146 247 393 436 647 1430
2020-08-03 07:30 5.60 814 4010 (1962) 14 (1936) 402 57 89 132 146 247 393 436 647 1430
2020-08-03 06:30 5.61 821 4010 (1962) 14 (1936) 402 57 89 132 146 247 393 436 647 1430
2020-08-03 05:30 5.61 821 4010 (1962) 14 (1936) 402 57 89 132 146 247 393 436 647 1430
2020-08-03 04:30 5.62 827 4010 (1962) 14 (1936) 402 57 89 132 146 247 393 436 647 1430
2020-08-03 03:30 5.62 827 4010 (1962) 14 (1936) 402 57 89 132 146 247 393 436 647 1430
2020-08-03 02:30 5.63 834 4010 (1962) 14 (1936) 402 57 89 132 146 247 393 436 647 1430
2020-08-03 00:30 5.64 841 4010 (1962) 14 (1936) 402 57 89 132 146 247 393 436 647 1430
2020-08-02 23:30 5.64 841 5700 (1962) 14 (1936) 438 60 93 133 150 259 393 485 771 1830
2020-08-02 22:30 5.65 848 5700 (1962) 14 (1936) 438 60 93 133 150 259 393 485 771 1830
2020-08-02 21:30 5.64 841 5700 (1962) 14 (1936) 438 60 93 133 150 259 393 485 771 1830
2020-08-02 20:30 5.65 848 5700 (1962) 14 (1936) 438 60 93 133 150 259 393 485 771 1830
2020-08-02 19:30 5.66 855 5700 (1962) 14 (1936) 438 60 93 133 150 259 393 485 771 1830
2020-08-02 18:30 5.65 848 5700 (1962) 14 (1936) 438 60 93 133 150 259 393 485 771 1830
2020-08-02 17:30 5.68 868 5700 (1962) 14 (1936) 438 60 93 133 150 259 393 485 771 1830
2020-08-02 16:30 5.68 868 5700 (1962) 14 (1936) 438 60 93 133 150 259 393 485 771 1830
2020-08-02 15:30 5.68 868 5700 (1962) 14 (1936) 438 60 93 133 150 259 393 485 771 1830
2020-08-02 14:30 5.69 875 5700 (1962) 14 (1936) 438 60 93 133 150 259 393 485 771 1830
2020-08-02 13:30 5.70 882 5700 (1962) 14 (1936) 438 60 93 133 150 259 393 485 771 1830
2020-08-02 12:30 5.70 882 5700 (1962) 14 (1936) 438 60 93 133 150 259 393 485 771 1830
2020-08-02 11:30 5.71 889 5700 (1962) 14 (1936) 438 60 93 133 150 259 393 485 771 1830
2020-08-02 10:30 5.71 889 5700 (1962) 14 (1936) 438 60 93 133 150 259 393 485 771 1830
2020-08-02 09:30 5.72 896 5700 (1962) 14 (1936) 438 60 93 133 150 259 393 485 771 1830
2020-08-02 08:30 5.73 903 5700 (1962) 14 (1936) 438 60 93 133 150 259 393 485 771 1830
2020-08-02 07:30 5.74 911 5700 (1962) 14 (1936) 438 60 93 133 150 259 393 485 771 1830
2020-08-02 06:30 5.74 911 5700 (1962) 14 (1936) 438 60 93 133 150 259 393 485 771 1830
2020-08-02 05:30 5.74 911 5700 (1962) 14 (1936) 438 60 93 133 150 259 393 485 771 1830
2020-08-02 03:30 5.75 918 5700 (1962) 14 (1936) 438 60 93 133 150 259 393 485 771 1830
2020-08-02 02:30 5.74 911 5700 (1962) 14 (1936) 438 60 93 133 150 259 393 485 771 1830
2020-08-02 01:30 5.75 918 5700 (1962) 14 (1936) 438 60 93 133 150 259 393 485 771 1830
2020-08-02 00:30 5.75 918 5700 (1962) 14 (1936) 438 60 93 133 150 259 393 485 771 1830
2020-08-01 23:30 5.75 918 2580 (2004) 17 (1936) 400 63 99 135 150 268 441 471 812 1450
2020-08-01 22:30 5.75 918 2580 (2004) 17 (1936) 400 63 99 135 150 268 441 471 812 1450
2020-08-01 21:30 5.75 918 2580 (2004) 17 (1936) 400 63 99 135 150 268 441 471 812 1450
2020-08-01 20:30 5.76 925 2580 (2004) 17 (1936) 400 63 99 135 150 268 441 471 812 1450
2020-08-01 19:30 5.77 932 2580 (2004) 17 (1936) 400 63 99 135 150 268 441 471 812 1450
2020-08-01 18:30 5.77 932 2580 (2004) 17 (1936) 400 63 99 135 150 268 441 471 812 1450
2020-08-01 17:30 5.79 947 2580 (2004) 17 (1936) 400 63 99 135 150 268 441 471 812 1450
2020-08-01 16:30 5.79 947 2580 (2004) 17 (1936) 400 63 99 135 150 268 441 471 812 1450
2020-08-01 15:30 5.80 954 2580 (2004) 17 (1936) 400 63 99 135 150 268 441 471 812 1450
2020-08-01 14:30 5.80 954 2580 (2004) 17 (1936) 400 63 99 135 150 268 441 471 812 1450
2020-08-01 13:30 5.82 969 2580 (2004) 17 (1936) 400 63 99 135 150 268 441 471 812 1450
2020-08-01 12:30 5.83 976 2580 (2004) 17 (1936) 400 63 99 135 150 268 441 471 812 1450
2020-08-01 11:30 5.84 984 2580 (2004) 17 (1936) 400 63 99 135 150 268 441 471 812 1450
2020-08-01 10:30 5.84 984 2580 (2004) 17 (1936) 400 63 99 135 150 268 441 471 812 1450
2020-08-01 09:30 5.85 991 2580 (2004) 17 (1936) 400 63 99 135 150 268 441 471 812 1450
2020-08-01 08:30 5.87 1010 2580 (2004) 17 (1936) 400 63 99 135 150 268 441 471 812 1450
2020-08-01 07:30 5.91 1040 2580 (2004) 17 (1936) 400 63 99 135 150 268 441 471 812 1450
2020-08-01 06:30 5.90 1030 2580 (2004) 17 (1936) 400 63 99 135 150 268 441 471 812 1450
2020-08-01 05:30 5.89 1020 2580 (2004) 17 (1936) 400 63 99 135 150 268 441 471 812 1450
2020-08-01 04:30 5.89 1020 2580 (2004) 17 (1936) 400 63 99 135 150 268 441 471 812 1450
2020-08-01 03:30 5.88 1010 2580 (2004) 17 (1936) 400 63 99 135 150 268 441 471 812 1450
2020-08-01 01:30 5.84 984 2580 (2004) 17 (1936) 400 63 99 135 150 268 441 471 812 1450
2020-08-01 00:30 5.80 954 2580 (2004) 17 (1936) 400 63 99 135 150 268 441 471 812 1450
2020-07-31 23:30 5.76 925 3200 (2004) 15 (1936) 409 66 105 128 146 257 449 501 856 1300
2020-07-31 22:30 5.73 903 3200 (2004) 15 (1936) 409 66 105 128 146 257 449 501 856 1300
2020-07-31 21:30 5.71 889 3200 (2004) 15 (1936) 409 66 105 128 146 257 449 501 856 1300
2020-07-31 20:30 5.69 875 3200 (2004) 15 (1936) 409 66 105 128 146 257 449 501 856 1300
2020-07-31 19:30 5.67 861 3200 (2004) 15 (1936) 409 66 105 128 146 257 449 501 856 1300
2020-07-31 18:30 5.67 861 3200 (2004) 15 (1936) 409 66 105 128 146 257 449 501 856 1300
2020-07-31 17:30 5.67 861 3200 (2004) 15 (1936) 409 66 105 128 146 257 449 501 856 1300
2020-07-31 16:30 5.65 848 3200 (2004) 15 (1936) 409 66 105 128 146 257 449 501 856 1300
2020-07-31 15:30 5.65 848 3200 (2004) 15 (1936) 409 66 105 128 146 257 449 501 856 1300
2020-07-31 14:30 5.65 848 3200 (2004) 15 (1936) 409 66 105 128 146 257 449 501 856 1300
2020-07-31 13:30 5.65 848 3200 (2004) 15 (1936) 409 66 105 128 146 257 449 501 856 1300
2020-07-31 12:30 5.64 841 3200 (2004) 15 (1936) 409 66 105 128 146 257 449 501 856 1300
2020-07-31 11:30 5.62 827 3200 (2004) 15 (1936) 409 66 105 128 146 257 449 501 856 1300
2020-07-31 10:30 5.63 834 3200 (2004) 15 (1936) 409 66 105 128 146 257 449 501 856 1300
2020-07-31 09:30 5.64 841 3200 (2004) 15 (1936) 409 66 105 128 146 257 449 501 856 1300
2020-07-31 08:30 5.60 814 3200 (2004) 15 (1936) 409 66 105 128 146 257 449 501 856 1300
2020-07-31 07:30 5.62 827 3200 (2004) 15 (1936) 409 66 105 128 146 257 449 501 856 1300
2020-07-31 06:30 5.63 834 3200 (2004) 15 (1936) 409 66 105 128 146 257 449 501 856 1300
2020-07-31 05:30 5.62 827 3200 (2004) 15 (1936) 409 66 105 128 146 257 449 501 856 1300
2020-07-31 04:30 5.60 814 3200 (2004) 15 (1936) 409 66 105 128 146 257 449 501 856 1300
2020-07-31 03:30 5.58 801 3200 (2004) 15 (1936) 409 66 105 128 146 257 449 501 856 1300
2020-07-31 02:30 5.58 801 3200 (2004) 15 (1936) 409 66 105 128 146 257 449 501 856 1300
2020-07-31 01:30 5.57 794 3200 (2004) 15 (1936) 409 66 105 128 146 257 449 501 856 1300
2020-07-31 00:30 5.56 788 3200 (2004) 15 (1936) 409 66 105 128 146 257 449 501 856 1300
2020-07-30 23:30 5.57 794 3500 (1958) 15 (1954) 407 69 106 133 146 248 424 479 861 1510
2020-07-30 22:30 5.56 788 3500 (1958) 15 (1954) 407 69 106 133 146 248 424 479 861 1510
2020-07-30 21:30 5.56 788 3500 (1958) 15 (1954) 407 69 106 133 146 248 424 479 861 1510
2020-07-30 20:30 5.56 788 3500 (1958) 15 (1954) 407 69 106 133 146 248 424 479 861 1510
2020-07-30 19:30 5.57 794 3500 (1958) 15 (1954) 407 69 106 133 146 248 424 479 861 1510
2020-07-30 18:30 5.57 794 3500 (1958) 15 (1954) 407 69 106 133 146 248 424 479 861 1510
2020-07-30 17:30 5.57 794 3500 (1958) 15 (1954) 407 69 106 133 146 248 424 479 861 1510
2020-07-30 16:30 5.58 801 3500 (1958) 15 (1954) 407 69 106 133 146 248 424 479 861 1510
2020-07-30 15:30 5.60 814 3500 (1958) 15 (1954) 407 69 106 133 146 248 424 479 861 1510
2020-07-30 14:30 5.60 814 3500 (1958) 15 (1954) 407 69 106 133 146 248 424 479 861 1510
2020-07-30 13:30 5.59 807 3500 (1958) 15 (1954) 407 69 106 133 146 248 424 479 861 1510
2020-07-30 12:30 5.60 814 3500 (1958) 15 (1954) 407 69 106 133 146 248 424 479 861 1510
2020-07-30 11:30 5.61 821 3500 (1958) 15 (1954) 407 69 106 133 146 248 424 479 861 1510
2020-07-30 10:30 5.60 814 3500 (1958) 15 (1954) 407 69 106 133 146 248 424 479 861 1510
2020-07-30 09:30 5.61 821 3500 (1958) 15 (1954) 407 69 106 133 146 248 424 479 861 1510
2020-07-30 08:30 5.60 814 3500 (1958) 15 (1954) 407 69 106 133 146 248 424 479 861 1510
2020-07-30 07:30 5.59 807 3500 (1958) 15 (1954) 407 69 106 133 146 248 424 479 861 1510
2020-07-30 06:30 5.59 807 3500 (1958) 15 (1954) 407 69 106 133 146 248 424 479 861 1510
2020-07-30 05:30 5.58 801 3500 (1958) 15 (1954) 407 69 106 133 146 248 424 479 861 1510
2020-07-30 04:30 5.57 794 3500 (1958) 15 (1954) 407 69 106 133 146 248 424 479 861 1510
2020-07-30 03:30 5.56 788 3500 (1958) 15 (1954) 407 69 106 133 146 248 424 479 861 1510
2020-07-30 02:30 5.53 768 3500 (1958) 15 (1954) 407 69 106 133 146 248 424 479 861 1510
2020-07-30 01:30 5.53 768 3500 (1958) 15 (1954) 407 69 106 133 146 248 424 479 861 1510
2020-07-29 23:30 5.54 775 3490 (1958) 10 (1954) 417 70 111 142 153 243 448 531 1000 1250
2020-07-29 22:30 5.54 775 3490 (1958) 10 (1954) 417 70 111 142 153 243 448 531 1000 1250
2020-07-29 21:30 5.54 775 3490 (1958) 10 (1954) 417 70 111 142 153 243 448 531 1000 1250
2020-07-29 20:30 5.53 768 3490 (1958) 10 (1954) 417 70 111 142 153 243 448 531 1000 1250
2020-07-29 19:30 5.52 762 3490 (1958) 10 (1954) 417 70 111 142 153 243 448 531 1000 1250
2020-07-29 18:30 5.51 756 3490 (1958) 10 (1954) 417 70 111 142 153 243 448 531 1000 1250
2020-07-29 17:30 5.49 743 3490 (1958) 10 (1954) 417 70 111 142 153 243 448 531 1000 1250
2020-07-29 16:30 5.48 737 3490 (1958) 10 (1954) 417 70 111 142 153 243 448 531 1000 1250
2020-07-29 15:30 5.46 724 3490 (1958) 10 (1954) 417 70 111 142 153 243 448 531 1000 1250
2020-07-29 14:30 5.44 712 3490 (1958) 10 (1954) 417 70 111 142 153 243 448 531 1000 1250
2020-07-29 13:30 5.41 694 3490 (1958) 10 (1954) 417 70 111 142 153 243 448 531 1000 1250
2020-07-29 12:30 5.38 676 3490 (1958) 10 (1954) 417 70 111 142 153 243 448 531 1000 1250
2020-07-29 11:30 5.35 659 3490 (1958) 10 (1954) 417 70 111 142 153 243 448 531 1000 1250
2020-07-29 10:30 5.33 647 3490 (1958) 10 (1954) 417 70 111 142 153 243 448 531 1000 1250
2020-07-29 09:30 5.33 647 3490 (1958) 10 (1954) 417 70 111 142 153 243 448 531 1000 1250
2020-07-29 08:30 5.32 641 3490 (1958) 10 (1954) 417 70 111 142 153 243 448 531 1000 1250
2020-07-29 07:30 5.32 641 3490 (1958) 10 (1954) 417 70 111 142 153 243 448 531 1000 1250
2020-07-29 06:30 5.32 641 3490 (1958) 10 (1954) 417 70 111 142 153 243 448 531 1000 1250
2020-07-29 05:30 5.31 636 3490 (1958) 10 (1954) 417 70 111 142 153 243 448 531 1000 1250
2020-07-29 04:30 5.29 624 3490 (1958) 10 (1954) 417 70 111 142 153 243 448 531 1000 1250
2020-07-29 03:30 5.31 636 3490 (1958) 10 (1954) 417 70 111 142 153 243 448 531 1000 1250
2020-07-29 02:30 5.31 636 3490 (1958) 10 (1954) 417 70 111 142 153 243 448 531 1000 1250
2020-07-29 01:30 5.31 636 3490 (1958) 10 (1954) 417 70 111 142 153 243 448 531 1000 1250
2020-07-29 00:30 5.31 636 3490 (1958) 10 (1954) 417 70 111 142 153 243 448 531 1000 1250
2020-07-28 23:30 5.31 636 2810 (1960) 9 (1954) 408 69 110 148 160 235 461 547 1110 1310
2020-07-28 22:30 5.31 636 2810 (1960) 9 (1954) 408 69 110 148 160 235 461 547 1110 1310
2020-07-28 21:30 5.31 636 2810 (1960) 9 (1954) 408 69 110 148 160 235 461 547 1110 1310
2020-07-28 20:30 5.31 636 2810 (1960) 9 (1954) 408 69 110 148 160 235 461 547 1110 1310
2020-07-28 19:30 5.30 630 2810 (1960) 9 (1954) 408 69 110 148 160 235 461 547 1110 1310
2020-07-28 18:30 5.31 636 2810 (1960) 9 (1954) 408 69 110 148 160 235 461 547 1110 1310
2020-07-28 17:30 5.30 630 2810 (1960) 9 (1954) 408 69 110 148 160 235 461 547 1110 1310
2020-07-28 16:30 5.31 636 2810 (1960) 9 (1954) 408 69 110 148 160 235 461 547 1110 1310
2020-07-28 15:30 5.31 636 2810 (1960) 9 (1954) 408 69 110 148 160 235 461 547 1110 1310
2020-07-28 14:30 5.31 636 2810 (1960) 9 (1954) 408 69 110 148 160 235 461 547 1110 1310
2020-07-28 13:30 5.31 636 2810 (1960) 9 (1954) 408 69 110 148 160 235 461 547 1110 1310
2020-07-28 12:30 5.32 641 2810 (1960) 9 (1954) 408 69 110 148 160 235 461 547 1110 1310
2020-07-28 11:30 5.32 641 2810 (1960) 9 (1954) 408 69 110 148 160 235 461 547 1110 1310
2020-07-28 10:30 5.32 641 2810 (1960) 9 (1954) 408 69 110 148 160 235 461 547 1110 1310
2020-07-28 09:30 5.33 647 2810 (1960) 9 (1954) 408 69 110 148 160 235 461 547 1110 1310
2020-07-28 08:30 5.34 653 2810 (1960) 9 (1954) 408 69 110 148 160 235 461 547 1110 1310
2020-07-28 07:30 5.34 653 2810 (1960) 9 (1954) 408 69 110 148 160 235 461 547 1110 1310
2020-07-28 06:30 5.35 659 2810 (1960) 9 (1954) 408 69 110 148 160 235 461 547 1110 1310
2020-07-28 05:30 5.34 653 2810 (1960) 9 (1954) 408 69 110 148 160 235 461 547 1110 1310
2020-07-28 03:30 5.37 670 2810 (1960) 9 (1954) 408 69 110 148 160 235 461 547 1110 1310
2020-07-28 02:30 5.37 670 2810 (1960) 9 (1954) 408 69 110 148 160 235 461 547 1110 1310
2020-07-28 01:30 5.38 676 2810 (1960) 9 (1954) 408 69 110 148 160 235 461 547 1110 1310
2020-07-28 00:30 5.37 670 2810 (1960) 9 (1954) 408 69 110 148 160 235 461 547 1110 1310
2020-07-27 23:30 5.38 676 12400 (1960) 9 (1954) 525 65 106 146 152 240 470 526 809 1610
2020-07-27 22:30 5.39 682 12400 (1960) 9 (1954) 525 65 106 146 152 240 470 526 809 1610
2020-07-27 21:30 5.37 670 12400 (1960) 9 (1954) 525 65 106 146 152 240 470 526 809 1610
2020-07-27 20:30 5.35 659 12400 (1960) 9 (1954) 525 65 106 146 152 240 470 526 809 1610
2020-07-27 19:30 5.34 653 12400 (1960) 9 (1954) 525 65 106 146 152 240 470 526 809 1610
2020-07-27 18:30 5.35 659 12400 (1960) 9 (1954) 525 65 106 146 152 240 470 526 809 1610
2020-07-27 17:30 5.34 653 12400 (1960) 9 (1954) 525 65 106 146 152 240 470 526 809 1610
2020-07-27 16:30 5.33 647 12400 (1960) 9 (1954) 525 65 106 146 152 240 470 526 809 1610
2020-07-27 15:30 5.34 653 12400 (1960) 9 (1954) 525 65 106 146 152 240 470 526 809 1610
2020-07-27 14:30 5.35 659 12400 (1960) 9 (1954) 525 65 106 146 152 240 470 526 809 1610
2020-07-27 13:30 5.35 659 12400 (1960) 9 (1954) 525 65 106 146 152 240 470 526 809 1610
2020-07-27 12:30 5.35 659 12400 (1960) 9 (1954) 525 65 106 146 152 240 470 526 809 1610
2020-07-27 11:30 5.36 664 12400 (1960) 9 (1954) 525 65 106 146 152 240 470 526 809 1610
2020-07-27 10:30 5.36 664 12400 (1960) 9 (1954) 525 65 106 146 152 240 470 526 809 1610
2020-07-27 09:30 5.36 664 12400 (1960) 9 (1954) 525 65 106 146 152 240 470 526 809 1610
2020-07-27 08:30 5.37 670 12400 (1960) 9 (1954) 525 65 106 146 152 240 470 526 809 1610
2020-07-27 07:30 5.37 670 12400 (1960) 9 (1954) 525 65 106 146 152 240 470 526 809 1610
2020-07-27 06:30 5.38 676 12400 (1960) 9 (1954) 525 65 106 146 152 240 470 526 809 1610
2020-07-27 05:30 5.38 676 12400 (1960) 9 (1954) 525 65 106 146 152 240 470 526 809 1610
2020-07-27 04:30 5.38 676 12400 (1960) 9 (1954) 525 65 106 146 152 240 470 526 809 1610
2020-07-27 03:30 5.38 676 12400 (1960) 9 (1954) 525 65 106 146 152 240 470 526 809 1610
2020-07-27 02:30 5.39 682 12400 (1960) 9 (1954) 525 65 106 146 152 240 470 526 809 1610
2020-07-27 01:30 5.38 676 12400 (1960) 9 (1954) 525 65 106 146 152 240 470 526 809 1610
2020-07-27 00:30 5.39 682 12400 (1960) 9 (1954) 525 65 106 146 152 240 470 526 809 1610
2020-07-26 23:30 5.39 682 23200 (1960) 10 (1954) 663 61 109 150 153 248 404 462 843 1950
2020-07-26 22:30 5.39 682 23200 (1960) 10 (1954) 663 61 109 150 153 248 404 462 843 1950
2020-07-26 21:30 5.39 682 23200 (1960) 10 (1954) 663 61 109 150 153 248 404 462 843 1950
2020-07-26 20:30 5.40 688 23200 (1960) 10 (1954) 663 61 109 150 153 248 404 462 843 1950
2020-07-26 19:30 5.41 694 23200 (1960) 10 (1954) 663 61 109 150 153 248 404 462 843 1950
2020-07-26 18:30 5.41 694 23200 (1960) 10 (1954) 663 61 109 150 153 248 404 462 843 1950
2020-07-26 17:30 5.42 700 23200 (1960) 10 (1954) 663 61 109 150 153 248 404 462 843 1950
2020-07-26 16:30 5.42 700 23200 (1960) 10 (1954) 663 61 109 150 153 248 404 462 843 1950
2020-07-26 15:30 5.41 694 23200 (1960) 10 (1954) 663 61 109 150 153 248 404 462 843 1950
2020-07-26 14:30 5.42 700 23200 (1960) 10 (1954) 663 61 109 150 153 248 404 462 843 1950
2020-07-26 13:30 5.43 706 23200 (1960) 10 (1954) 663 61 109 150 153 248 404 462 843 1950
2020-07-26 12:30 5.43 706 23200 (1960) 10 (1954) 663 61 109 150 153 248 404 462 843 1950
2020-07-26 11:30 5.44 712 23200 (1960) 10 (1954) 663 61 109 150 153 248 404 462 843 1950
2020-07-26 10:30 5.45 718 23200 (1960) 10 (1954) 663 61 109 150 153 248 404 462 843 1950
2020-07-26 09:30 5.45 718 23200 (1960) 10 (1954) 663 61 109 150 153 248 404 462 843 1950
2020-07-26 08:30 5.45 718 23200 (1960) 10 (1954) 663 61 109 150 153 248 404 462 843 1950
2020-07-26 07:30 5.46 724 23200 (1960) 10 (1954) 663 61 109 150 153 248 404 462 843 1950
2020-07-26 06:30 5.45 718 23200 (1960) 10 (1954) 663 61 109 150 153 248 404 462 843 1950
2020-07-26 05:30 5.46 724 23200 (1960) 10 (1954) 663 61 109 150 153 248 404 462 843 1950
2020-07-26 04:30 5.47 730 23200 (1960) 10 (1954) 663 61 109 150 153 248 404 462 843 1950
2020-07-26 03:30 5.47 730 23200 (1960) 10 (1954) 663 61 109 150 153 248 404 462 843 1950
2020-07-26 02:30 5.48 737 23200 (1960) 10 (1954) 663 61 109 150 153 248 404 462 843 1950
2020-07-26 01:30 5.47 730 23200 (1960) 10 (1954) 663 61 109 150 153 248 404 462 843 1950
2020-07-26 00:30 5.46 724 23200 (1960) 10 (1954) 663 61 109 150 153 248 404 462 843 1950
2020-07-25 23:30 5.48 737 3420 (1959) 10 (1954) 431 60 98 142 157 247 410 479 696 2390
2020-07-25 22:30 5.47 730 3420 (1959) 10 (1954) 431 60 98 142 157 247 410 479 696 2390
2020-07-25 21:30 5.48 737 3420 (1959) 10 (1954) 431 60 98 142 157 247 410 479 696 2390
2020-07-25 20:30 5.49 743 3420 (1959) 10 (1954) 431 60 98 142 157 247 410 479 696 2390
2020-07-25 19:30 5.50 749 3420 (1959) 10 (1954) 431 60 98 142 157 247 410 479 696 2390
2020-07-25 18:30 5.51 756 3420 (1959) 10 (1954) 431 60 98 142 157 247 410 479 696 2390
2020-07-25 17:30 5.52 762 3420 (1959) 10 (1954) 431 60 98 142 157 247 410 479 696 2390
2020-07-25 16:30 5.53 768 3420 (1959) 10 (1954) 431 60 98 142 157 247 410 479 696 2390
2020-07-25 15:30 5.54 775 3420 (1959) 10 (1954) 431 60 98 142 157 247 410 479 696 2390
2020-07-25 14:30 5.54 775 3420 (1959) 10 (1954) 431 60 98 142 157 247 410 479 696 2390
2020-07-25 13:30 5.55 781 3420 (1959) 10 (1954) 431 60 98 142 157 247 410 479 696 2390
2020-07-25 12:30 5.56 788 3420 (1959) 10 (1954) 431 60 98 142 157 247 410 479 696 2390
2020-07-25 11:30 5.57 794 3420 (1959) 10 (1954) 431 60 98 142 157 247 410 479 696 2390
2020-07-25 10:30 5.58 801 3420 (1959) 10 (1954) 431 60 98 142 157 247 410 479 696 2390
2020-07-25 09:30 5.59 807 3420 (1959) 10 (1954) 431 60 98 142 157 247 410 479 696 2390
2020-07-25 08:30 5.59 807 3420 (1959) 10 (1954) 431 60 98 142 157 247 410 479 696 2390
2020-07-25 07:30 5.60 814 3420 (1959) 10 (1954) 431 60 98 142 157 247 410 479 696 2390
2020-07-25 06:30 5.60 814 3420 (1959) 10 (1954) 431 60 98 142 157 247 410 479 696 2390
2020-07-25 05:30 5.62 827 3420 (1959) 10 (1954) 431 60 98 142 157 247 410 479 696 2390
2020-07-25 04:30 5.62 827 3420 (1959) 10 (1954) 431 60 98 142 157 247 410 479 696 2390
2020-07-25 03:30 5.64 841 3420 (1959) 10 (1954) 431 60 98 142 157 247 410 479 696 2390
2020-07-25 02:30 5.66 855 3420 (1959) 10 (1954) 431 60 98 142 157 247 410 479 696 2390
2020-07-25 01:30 5.67 861 3420 (1959) 10 (1954) 431 60 98 142 157 247 410 479 696 2390
2020-07-24 23:30 5.69 875 8900 (1959) 11 (1954) 542 62 99 137 159 248 460 529 776 2800
2020-07-24 22:30 5.71 889 8900 (1959) 11 (1954) 542 62 99 137 159 248 460 529 776 2800
2020-07-24 21:30 5.71 889 8900 (1959) 11 (1954) 542 62 99 137 159 248 460 529 776 2800
2020-07-24 20:30 5.72 896 8900 (1959) 11 (1954) 542 62 99 137 159 248 460 529 776 2800
2020-07-24 19:30 5.74 911 8900 (1959) 11 (1954) 542 62 99 137 159 248 460 529 776 2800
2020-07-24 18:30 5.76 925 8900 (1959) 11 (1954) 542 62 99 137 159 248 460 529 776 2800
2020-07-24 17:30 5.77 932 8900 (1959) 11 (1954) 542 62 99 137 159 248 460 529 776 2800
2020-07-24 16:30 5.78 939 8900 (1959) 11 (1954) 542 62 99 137 159 248 460 529 776 2800
2020-07-24 15:30 5.80 954 8900 (1959) 11 (1954) 542 62 99 137 159 248 460 529 776 2800
2020-07-24 14:30 5.83 976 8900 (1959) 11 (1954) 542 62 99 137 159 248 460 529 776 2800
2020-07-24 13:30 5.84 984 8900 (1959) 11 (1954) 542 62 99 137 159 248 460 529 776 2800
2020-07-24 12:30 5.85 991 8900 (1959) 11 (1954) 542 62 99 137 159 248 460 529 776 2800
2020-07-24 11:30 5.88 1010 8900 (1959) 11 (1954) 542 62 99 137 159 248 460 529 776 2800
2020-07-24 10:30 5.89 1020 8900 (1959) 11 (1954) 542 62 99 137 159 248 460 529 776 2800
2020-07-24 09:30 5.91 1040 8900 (1959) 11 (1954) 542 62 99 137 159 248 460 529 776 2800
2020-07-24 08:30 5.93 1050 8900 (1959) 11 (1954) 542 62 99 137 159 248 460 529 776 2800
2020-07-24 07:30 5.97 1080 8900 (1959) 11 (1954) 542 62 99 137 159 248 460 529 776 2800
2020-07-24 06:30 6.00 1110 8900 (1959) 11 (1954) 542 62 99 137 159 248 460 529 776 2800
2020-07-24 05:30 6.02 1130 8900 (1959) 11 (1954) 542 62 99 137 159 248 460 529 776 2800
2020-07-24 04:30 6.05 1150 8900 (1959) 11 (1954) 542 62 99 137 159 248 460 529 776 2800
2020-07-24 03:30 6.09 1180 8900 (1959) 11 (1954) 542 62 99 137 159 248 460 529 776 2800
2020-07-24 02:30 6.13 1220 8900 (1959) 11 (1954) 542 62 99 137 159 248 460 529 776 2800
2020-07-24 01:30 6.16 1240 8900 (1959) 11 (1954) 542 62 99 137 159 248 460 529 776 2800
2020-07-24 00:30 6.20 1280 8900 (1959) 11 (1954) 542 62 99 137 159 248 460 529 776 2800
2020-07-23 23:30 6.21 1290 5140 (1950) 12 (1954) 463 65 92 143 162 250 449 516 673 1520
2020-07-23 22:30 6.25 1320 5140 (1950) 12 (1954) 463 65 92 143 162 250 449 516 673 1520
2020-07-23 21:30 6.30 1370 5140 (1950) 12 (1954) 463 65 92 143 162 250 449 516 673 1520
2020-07-23 20:30 6.33 1400 5140 (1950) 12 (1954) 463 65 92 143 162 250 449 516 673 1520
2020-07-23 19:30 6.35 1420 5140 (1950) 12 (1954) 463 65 92 143 162 250 449 516 673 1520
2020-07-23 18:30 6.38 1450 5140 (1950) 12 (1954) 463 65 92 143 162 250 449 516 673 1520
2020-07-23 17:30 6.40 1470 5140 (1950) 12 (1954) 463 65 92 143 162 250 449 516 673 1520
2020-07-23 16:30 6.40 1470 5140 (1950) 12 (1954) 463 65 92 143 162 250 449 516 673 1520
2020-07-23 15:30 6.35 1420 5140 (1950) 12 (1954) 463 65 92 143 162 250 449 516 673 1520
2020-07-23 14:30 6.25 1320 5140 (1950) 12 (1954) 463 65 92 143 162 250 449 516 673 1520
2020-07-23 13:30 6.06 1160 5140 (1950) 12 (1954) 463 65 92 143 162 250 449 516 673 1520
2020-07-23 12:30 5.72 896 5140 (1950) 12 (1954) 463 65 92 143 162 250 449 516 673 1520
2020-07-23 11:30 5.41 694 5140 (1950) 12 (1954) 463 65 92 143 162 250 449 516 673 1520
2020-07-23 10:30 5.32 641 5140 (1950) 12 (1954) 463 65 92 143 162 250 449 516 673 1520
2020-07-23 09:30 5.31 636 5140 (1950) 12 (1954) 463 65 92 143 162 250 449 516 673 1520
2020-07-23 08:30 5.31 636 5140 (1950) 12 (1954) 463 65 92 143 162 250 449 516 673 1520
2020-07-23 07:30 5.32 641 5140 (1950) 12 (1954) 463 65 92 143 162 250 449 516 673 1520
2020-07-23 06:30 5.31 636 5140 (1950) 12 (1954) 463 65 92 143 162 250 449 516 673 1520
2020-07-23 05:30 5.30 630 5140 (1950) 12 (1954) 463 65 92 143 162 250 449 516 673 1520
2020-07-23 04:30 5.29 624 5140 (1950) 12 (1954) 463 65 92 143 162 250 449 516 673 1520
2020-07-23 03:30 5.28 619 5140 (1950) 12 (1954) 463 65 92 143 162 250 449 516 673 1520
2020-07-23 02:30 5.28 619 5140 (1950) 12 (1954) 463 65 92 143 162 250 449 516 673 1520
2020-07-23 01:30 5.28 619 5140 (1950) 12 (1954) 463 65 92 143 162 250 449 516 673 1520
2020-07-23 00:30 5.28 619 5140 (1950) 12 (1954) 463 65 92 143 162 250 449 516 673 1520
2020-07-22 23:30 5.28 619 3520 (2015) 13 (1954) 402 65 95 142 162 257 446 494 714 1370
2020-07-22 22:30 5.28 619 3520 (2015) 13 (1954) 402 65 95 142 162 257 446 494 714 1370
2020-07-22 21:30 5.29 624 3520 (2015) 13 (1954) 402 65 95 142 162 257 446 494 714 1370
2020-07-22 20:30 5.29 624 3520 (2015) 13 (1954) 402 65 95 142 162 257 446 494 714 1370
2020-07-22 19:30 5.29 624 3520 (2015) 13 (1954) 402 65 95 142 162 257 446 494 714 1370
2020-07-22 18:30 5.29 624 3520 (2015) 13 (1954) 402 65 95 142 162 257 446 494 714 1370
2020-07-22 17:30 5.31 636 3520 (2015) 13 (1954) 402 65 95 142 162 257 446 494 714 1370
2020-07-22 16:30 5.31 636 3520 (2015) 13 (1954) 402 65 95 142 162 257 446 494 714 1370
2020-07-22 15:30 5.32 641 3520 (2015) 13 (1954) 402 65 95 142 162 257 446 494 714 1370
2020-07-22 14:30 5.32 641 3520 (2015) 13 (1954) 402 65 95 142 162 257 446 494 714 1370
2020-07-22 13:30 5.32 641 3520 (2015) 13 (1954) 402 65 95 142 162 257 446 494 714 1370
2020-07-22 12:30 5.32 641 3520 (2015) 13 (1954) 402 65 95 142 162 257 446 494 714 1370
2020-07-22 11:30 5.31 636 3520 (2015) 13 (1954) 402 65 95 142 162 257 446 494 714 1370
2020-07-22 10:30 5.31 636 3520 (2015) 13 (1954) 402 65 95 142 162 257 446 494 714 1370
2020-07-22 09:30 5.30 630 3520 (2015) 13 (1954) 402 65 95 142 162 257 446 494 714 1370
2020-07-22 08:30 5.31 636 3520 (2015) 13 (1954) 402 65 95 142 162 257 446 494 714 1370
2020-07-22 07:30 5.31 636 3520 (2015) 13 (1954) 402 65 95 142 162 257 446 494 714 1370
2020-07-22 06:30 5.30 630 3520 (2015) 13 (1954) 402 65 95 142 162 257 446 494 714 1370
2020-07-22 05:30 5.28 619 3520 (2015) 13 (1954) 402 65 95 142 162 257 446 494 714 1370
2020-07-22 04:30 5.28 619 3520 (2015) 13 (1954) 402 65 95 142 162 257 446 494 714 1370
2020-07-22 03:30 5.27 613 3520 (2015) 13 (1954) 402 65 95 142 162 257 446 494 714 1370
2020-07-22 02:30 5.28 619 3520 (2015) 13 (1954) 402 65 95 142 162 257 446 494 714 1370
2020-07-22 01:30 5.27 613 3520 (2015) 13 (1954) 402 65 95 142 162 257 446 494 714 1370
2020-07-22 00:30 5.27 613 3520 (2015) 13 (1954) 402 65 95 142 162 257 446 494 714 1370
2020-07-21 23:30 5.27 613 2800 (1950) 13 (1954) 396 67 106 136 172 267 451 516 832 1390
2020-07-21 22:30 5.27 613 2800 (1950) 13 (1954) 396 67 106 136 172 267 451 516 832 1390
2020-07-21 21:30 5.27 613 2800 (1950) 13 (1954) 396 67 106 136 172 267 451 516 832 1390
2020-07-21 20:30 5.27 613 2800 (1950) 13 (1954) 396 67 106 136 172 267 451 516 832 1390
2020-07-21 19:30 5.27 613 2800 (1950) 13 (1954) 396 67 106 136 172 267 451 516 832 1390
2020-07-21 18:30 5.28 619 2800 (1950) 13 (1954) 396 67 106 136 172 267 451 516 832 1390
2020-07-21 17:30 5.28 619 2800 (1950) 13 (1954) 396 67 106 136 172 267 451 516 832 1390
2020-07-21 16:30 5.28 619 2800 (1950) 13 (1954) 396 67 106 136 172 267 451 516 832 1390
2020-07-21 15:30 5.28 619 2800 (1950) 13 (1954) 396 67 106 136 172 267 451 516 832 1390
2020-07-21 14:30 5.28 619 2800 (1950) 13 (1954) 396 67 106 136 172 267 451 516 832 1390
2020-07-21 13:30 5.28 619 2800 (1950) 13 (1954) 396 67 106 136 172 267 451 516 832 1390
2020-07-21 12:30 5.29 624 2800 (1950) 13 (1954) 396 67 106 136 172 267 451 516 832 1390
2020-07-21 11:30 5.29 624 2800 (1950) 13 (1954) 396 67 106 136 172 267 451 516 832 1390
2020-07-21 10:30 5.29 624 2800 (1950) 13 (1954) 396 67 106 136 172 267 451 516 832 1390
2020-07-21 09:30 5.30 630 2800 (1950) 13 (1954) 396 67 106 136 172 267 451 516 832 1390
2020-07-21 08:30 5.30 630 2800 (1950) 13 (1954) 396 67 106 136 172 267 451 516 832 1390
2020-07-21 07:30 5.30 630 2800 (1950) 13 (1954) 396 67 106 136 172 267 451 516 832 1390
2020-07-21 06:30 5.30 630 2800 (1950) 13 (1954) 396 67 106 136 172 267 451 516 832 1390
2020-07-21 05:30 5.30 630 2800 (1950) 13 (1954) 396 67 106 136 172 267 451 516 832 1390
2020-07-21 04:30 5.31 636 2800 (1950) 13 (1954) 396 67 106 136 172 267 451 516 832 1390
2020-07-21 03:30 5.30 630 2800 (1950) 13 (1954) 396 67 106 136 172 267 451 516 832 1390
2020-07-21 02:30 5.30 630 2800 (1950) 13 (1954) 396 67 106 136 172 267 451 516 832 1390
2020-07-21 01:30 5.30 630 2800 (1950) 13 (1954) 396 67 106 136 172 267 451 516 832 1390
2020-07-21 00:30 5.31 636 2800 (1950) 13 (1954) 396 67 106 136 172 267 451 516 832 1390
2020-07-20 23:30 5.30 630 3140 (1950) 14 (1954) 410 68 106 140 173 277 483 527 889 1380
2020-07-20 22:30 5.31 636 3140 (1950) 14 (1954) 410 68 106 140 173 277 483 527 889 1380
2020-07-20 21:30 5.30 630 3140 (1950) 14 (1954) 410 68 106 140 173 277 483 527 889 1380
2020-07-20 20:30 5.30 630 3140 (1950) 14 (1954) 410 68 106 140 173 277 483 527 889 1380
2020-07-20 19:30 5.31 636 3140 (1950) 14 (1954) 410 68 106 140 173 277 483 527 889 1380
2020-07-20 18:30 5.31 636 3140 (1950) 14 (1954) 410 68 106 140 173 277 483 527 889 1380
2020-07-20 17:30 5.31 636 3140 (1950) 14 (1954) 410 68 106 140 173 277 483 527 889 1380
2020-07-20 16:30 5.31 636 3140 (1950) 14 (1954) 410 68 106 140 173 277 483 527 889 1380
2020-07-20 15:30 5.31 636 3140 (1950) 14 (1954) 410 68 106 140 173 277 483 527 889 1380
2020-07-20 14:30 5.32 641 3140 (1950) 14 (1954) 410 68 106 140 173 277 483 527 889 1380
2020-07-20 13:30 5.32 641 3140 (1950) 14 (1954) 410 68 106 140 173 277 483 527 889 1380
2020-07-20 12:30 5.33 647 3140 (1950) 14 (1954) 410 68 106 140 173 277 483 527 889 1380
2020-07-20 11:30 5.33 647 3140 (1950) 14 (1954) 410 68 106 140 173 277 483 527 889 1380
2020-07-20 10:30 5.34 653 3140 (1950) 14 (1954) 410 68 106 140 173 277 483 527 889 1380
2020-07-20 09:30 5.33 647 3140 (1950) 14 (1954) 410 68 106 140 173 277 483 527 889 1380
2020-07-20 08:30 5.34 653 3140 (1950) 14 (1954) 410 68 106 140 173 277 483 527 889 1380
2020-07-20 07:30 5.34 653 3140 (1950) 14 (1954) 410 68 106 140 173 277 483 527 889 1380
2020-07-20 06:30 5.34 653 3140 (1950) 14 (1954) 410 68 106 140 173 277 483 527 889 1380
2020-07-20 05:30 5.34 653 3140 (1950) 14 (1954) 410 68 106 140 173 277 483 527 889 1380
2020-07-20 04:30 5.34 653 3140 (1950) 14 (1954) 410 68 106 140 173 277 483 527 889 1380
2020-07-20 03:30 5.34 653 3140 (1950) 14 (1954) 410 68 106 140 173 277 483 527 889 1380
2020-07-20 02:30 5.34 653 3140 (1950) 14 (1954) 410 68 106 140 173 277 483 527 889 1380
2020-07-20 01:30 5.34 653 3140 (1950) 14 (1954) 410 68 106 140 173 277 483 527 889 1380
2020-07-20 00:30 5.34 653 3140 (1950) 14 (1954) 410 68 106 140 173 277 483 527 889 1380
2020-07-19 23:30 5.34 653 2530 (1961) 16 (1954) 407 70 102 148 176 280 494 575 851 1350
2020-07-19 22:30 5.34 653 2530 (1961) 16 (1954) 407 70 102 148 176 280 494 575 851 1350
2020-07-19 21:30 5.34 653 2530 (1961) 16 (1954) 407 70 102 148 176 280 494 575 851 1350
2020-07-19 20:30 5.34 653 2530 (1961) 16 (1954) 407 70 102 148 176 280 494 575 851 1350
2020-07-19 19:30 5.34 653 2530 (1961) 16 (1954) 407 70 102 148 176 280 494 575 851 1350
2020-07-19 18:30 5.35 659 2530 (1961) 16 (1954) 407 70 102 148 176 280 494 575 851 1350
2020-07-19 17:30 5.35 659 2530 (1961) 16 (1954) 407 70 102 148 176 280 494 575 851 1350
2020-07-19 16:30 5.35 659 2530 (1961) 16 (1954) 407 70 102 148 176 280 494 575 851 1350
2020-07-19 15:30 5.36 664 2530 (1961) 16 (1954) 407 70 102 148 176 280 494 575 851 1350
2020-07-19 14:30 5.36 664 2530 (1961) 16 (1954) 407 70 102 148 176 280 494 575 851 1350
2020-07-19 13:30 5.36 664 2530 (1961) 16 (1954) 407 70 102 148 176 280 494 575 851 1350
2020-07-19 12:30 5.36 664 2530 (1961) 16 (1954) 407 70 102 148 176 280 494 575 851 1350
2020-07-19 11:30 5.37 670 2530 (1961) 16 (1954) 407 70 102 148 176 280 494 575 851 1350
2020-07-19 10:30 5.37 670 2530 (1961) 16 (1954) 407 70 102 148 176 280 494 575 851 1350
2020-07-19 09:30 5.37 670 2530 (1961) 16 (1954) 407 70 102 148 176 280 494 575 851 1350
2020-07-19 08:30 5.37 670 2530 (1961) 16 (1954) 407 70 102 148 176 280 494 575 851 1350
2020-07-19 07:30 5.37 670 2530 (1961) 16 (1954) 407 70 102 148 176 280 494 575 851 1350
2020-07-19 06:30 5.37 670 2530 (1961) 16 (1954) 407 70 102 148 176 280 494 575 851 1350
2020-07-19 05:30 5.38 676 2530 (1961) 16 (1954) 407 70 102 148 176 280 494 575 851 1350
2020-07-19 04:30 5.38 676 2530 (1961) 16 (1954) 407 70 102 148 176 280 494 575 851 1350
2020-07-19 03:30 5.38 676 2530 (1961) 16 (1954) 407 70 102 148 176 280 494 575 851 1350
2020-07-19 02:30 5.38 676 2530 (1961) 16 (1954) 407 70 102 148 176 280 494 575 851 1350
2020-07-19 01:30 5.37 670 2530 (1961) 16 (1954) 407 70 102 148 176 280 494 575 851 1350
2020-07-19 00:30 5.37 670 2530 (1961) 16 (1954) 407 70 102 148 176 280 494 575 851 1350
2020-07-18 23:30 5.37 670 4070 (1961) 17 (1954) 464 73 107 148 176 283 485 555 890 1650
2020-07-18 22:30 5.37 670 4070 (1961) 17 (1954) 464 73 107 148 176 283 485 555 890 1650
2020-07-18 21:30 5.37 670 4070 (1961) 17 (1954) 464 73 107 148 176 283 485 555 890 1650
2020-07-18 20:30 5.37 670 4070 (1961) 17 (1954) 464 73 107 148 176 283 485 555 890 1650
2020-07-18 19:30 5.38 676 4070 (1961) 17 (1954) 464 73 107 148 176 283 485 555 890 1650
2020-07-18 18:30 5.37 670 4070 (1961) 17 (1954) 464 73 107 148 176 283 485 555 890 1650
2020-07-18 17:30 5.39 682 4070 (1961) 17 (1954) 464 73 107 148 176 283 485 555 890 1650
2020-07-18 16:30 5.40 688 4070 (1961) 17 (1954) 464 73 107 148 176 283 485 555 890 1650
2020-07-18 15:30 5.39 682 4070 (1961) 17 (1954) 464 73 107 148 176 283 485 555 890 1650
2020-07-18 14:30 5.40 688 4070 (1961) 17 (1954) 464 73 107 148 176 283 485 555 890 1650
2020-07-18 13:30 5.40 688 4070 (1961) 17 (1954) 464 73 107 148 176 283 485 555 890 1650
2020-07-18 12:30 5.40 688 4070 (1961) 17 (1954) 464 73 107 148 176 283 485 555 890 1650
2020-07-18 11:30 5.40 688 4070 (1961) 17 (1954) 464 73 107 148 176 283 485 555 890 1650
2020-07-18 10:30 5.40 688 4070 (1961) 17 (1954) 464 73 107 148 176 283 485 555 890 1650
2020-07-18 09:30 5.41 694 4070 (1961) 17 (1954) 464 73 107 148 176 283 485 555 890 1650
2020-07-18 08:30 5.41 694 4070 (1961) 17 (1954) 464 73 107 148 176 283 485 555 890 1650
2020-07-18 07:30 5.41 694 4070 (1961) 17 (1954) 464 73 107 148 176 283 485 555 890 1650
2020-07-18 06:30 5.41 694 4070 (1961) 17 (1954) 464 73 107 148 176 283 485 555 890 1650
2020-07-18 05:30 5.41 694 4070 (1961) 17 (1954) 464 73 107 148 176 283 485 555 890 1650
2020-07-18 04:30 5.41 694 4070 (1961) 17 (1954) 464 73 107 148 176 283 485 555 890 1650
2020-07-18 03:30 5.41 694 4070 (1961) 17 (1954) 464 73 107 148 176 283 485 555 890 1650
2020-07-18 02:30 5.42 700 4070 (1961) 17 (1954) 464 73 107 148 176 283 485 555 890 1650
2020-07-18 01:30 5.41 694 4070 (1961) 17 (1954) 464 73 107 148 176 283 485 555 890 1650
2020-07-18 00:30 5.41 694 4070 (1961) 17 (1954) 464 73 107 148 176 283 485 555 890 1650
2020-07-17 23:30 5.41 694 5960 (2010) 18 (1954) 516 76 110 155 184 292 457 586 1060 1980
2020-07-17 22:30 5.41 694 5960 (2010) 18 (1954) 516 76 110 155 184 292 457 586 1060 1980
2020-07-17 21:30 5.41 694 5960 (2010) 18 (1954) 516 76 110 155 184 292 457 586 1060 1980
2020-07-17 20:30 5.41 694 5960 (2010) 18 (1954) 516 76 110 155 184 292 457 586 1060 1980
2020-07-17 19:30 5.41 694 5960 (2010) 18 (1954) 516 76 110 155 184 292 457 586 1060 1980
2020-07-17 18:30 5.41 694 5960 (2010) 18 (1954) 516 76 110 155 184 292 457 586 1060 1980
2020-07-17 17:30 5.41 694 5960 (2010) 18 (1954) 516 76 110 155 184 292 457 586 1060 1980
2020-07-17 16:30 5.42 700 5960 (2010) 18 (1954) 516 76 110 155 184 292 457 586 1060 1980
2020-07-17 15:30 5.42 700 5960 (2010) 18 (1954) 516 76 110 155 184 292 457 586 1060 1980
2020-07-17 14:30 5.42 700 5960 (2010) 18 (1954) 516 76 110 155 184 292 457 586 1060 1980
2020-07-17 13:30 5.42 700 5960 (2010) 18 (1954) 516 76 110 155 184 292 457 586 1060 1980
2020-07-17 12:30 5.43 706 5960 (2010) 18 (1954) 516 76 110 155 184 292 457 586 1060 1980
2020-07-17 11:30 5.43 706 5960 (2010) 18 (1954) 516 76 110 155 184 292 457 586 1060 1980
2020-07-17 10:30 5.43 706 5960 (2010) 18 (1954) 516 76 110 155 184 292 457 586 1060 1980
2020-07-17 09:30 5.43 706 5960 (2010) 18 (1954) 516 76 110 155 184 292 457 586 1060 1980
2020-07-17 08:30 5.43 706 5960 (2010) 18 (1954) 516 76 110 155 184 292 457 586 1060 1980
2020-07-17 07:30 5.43 706 5960 (2010) 18 (1954) 516 76 110 155 184 292 457 586 1060 1980
2020-07-17 06:30 5.44 712 5960 (2010) 18 (1954) 516 76 110 155 184 292 457 586 1060 1980
2020-07-17 05:30 5.43 706 5960 (2010) 18 (1954) 516 76 110 155 184 292 457 586 1060 1980
2020-07-17 03:30 5.44 712 5960 (2010) 18 (1954) 516 76 110 155 184 292 457 586 1060 1980
2020-07-17 02:30 5.43 706 5960 (2010) 18 (1954) 516 76 110 155 184 292 457 586 1060 1980
2020-07-17 01:30 5.43 706 5960 (2010) 18 (1954) 516 76 110 155 184 292 457 586 1060 1980
2020-07-17 00:30 5.44 712 5960 (2010) 18 (1954) 516 76 110 155 184 292 457 586 1060 1980
2020-07-16 23:30 5.44 712 3980 (1961) 20 (1954) 503 80 110 166 185 290 507 606 914 2360
2020-07-16 22:30 5.44 712 3980 (1961) 20 (1954) 503 80 110 166 185 290 507 606 914 2360
2020-07-16 21:30 5.44 712 3980 (1961) 20 (1954) 503 80 110 166 185 290 507 606 914 2360
2020-07-16 20:30 5.44 712 3980 (1961) 20 (1954) 503 80 110 166 185 290 507 606 914 2360
2020-07-16 19:30 5.44 712 3980 (1961) 20 (1954) 503 80 110 166 185 290 507 606 914 2360
2020-07-16 18:30 5.44 712 3980 (1961) 20 (1954) 503 80 110 166 185 290 507 606 914 2360
2020-07-16 17:30 5.44 712 3980 (1961) 20 (1954) 503 80 110 166 185 290 507 606 914 2360
2020-07-16 16:30 5.43 706 3980 (1961) 20 (1954) 503 80 110 166 185 290 507 606 914 2360
2020-07-16 15:30 5.43 706 3980 (1961) 20 (1954) 503 80 110 166 185 290 507 606 914 2360
2020-07-16 14:30 5.45 718 3980 (1961) 20 (1954) 503 80 110 166 185 290 507 606 914 2360
2020-07-16 13:30 5.45 718 3980 (1961) 20 (1954) 503 80 110 166 185 290 507 606 914 2360
2020-07-16 12:30 5.45 718 3980 (1961) 20 (1954) 503 80 110 166 185 290 507 606 914 2360
2020-07-16 11:30 5.46 724 3980 (1961) 20 (1954) 503 80 110 166 185 290 507 606 914 2360
2020-07-16 10:30 5.46 724 3980 (1961) 20 (1954) 503 80 110 166 185 290 507 606 914 2360
2020-07-16 09:30 5.46 724 3980 (1961) 20 (1954) 503 80 110 166 185 290 507 606 914 2360
2020-07-16 08:30 5.46 724 3980 (1961) 20 (1954) 503 80 110 166 185 290 507 606 914 2360
2020-07-16 07:30 5.47 730 3980 (1961) 20 (1954) 503 80 110 166 185 290 507 606 914 2360
2020-07-16 06:30 5.48 737 3980 (1961) 20 (1954) 503 80 110 166 185 290 507 606 914 2360
2020-07-16 05:30 5.48 737 3980 (1961) 20 (1954) 503 80 110 166 185 290 507 606 914 2360
2020-07-16 04:30 5.48 737 3980 (1961) 20 (1954) 503 80 110 166 185 290 507 606 914 2360
2020-07-16 03:30 5.48 737 3980 (1961) 20 (1954) 503 80 110 166 185 290 507 606 914 2360
2020-07-16 02:30 5.48 737 3980 (1961) 20 (1954) 503 80 110 166 185 290 507 606 914 2360
2020-07-16 01:30 5.48 737 3980 (1961) 20 (1954) 503 80 110 166 185 290 507 606 914 2360
2020-07-16 00:30 5.48 737 3980 (1961) 20 (1954) 503 80 110 166 185 290 507 606 914 2360
2020-07-15 23:30 5.47 730 5410 (1972) 21 (1954) 632 84 114 177 191 310 521 662 1080 3400
2020-07-15 22:30 5.48 737 5410 (1972) 21 (1954) 632 84 114 177 191 310 521 662 1080 3400
2020-07-15 21:30 5.48 737 5410 (1972) 21 (1954) 632 84 114 177 191 310 521 662 1080 3400
2020-07-15 20:30 5.48 737 5410 (1972) 21 (1954) 632 84 114 177 191 310 521 662 1080 3400
2020-07-15 19:30 5.48 737 5410 (1972) 21 (1954) 632 84 114 177 191 310 521 662 1080 3400
2020-07-15 18:30 5.47 730 5410 (1972) 21 (1954) 632 84 114 177 191 310 521 662 1080 3400
2020-07-15 17:30 5.48 737 5410 (1972) 21 (1954) 632 84 114 177 191 310 521 662 1080 3400
2020-07-15 16:30 5.48 737 5410 (1972) 21 (1954) 632 84 114 177 191 310 521 662 1080 3400
2020-07-15 15:30 5.49 743 5410 (1972) 21 (1954) 632 84 114 177 191 310 521 662 1080 3400
2020-07-15 14:30 5.48 737 5410 (1972) 21 (1954) 632 84 114 177 191 310 521 662 1080 3400
2020-07-15 13:30 5.50 749 5410 (1972) 21 (1954) 632 84 114 177 191 310 521 662 1080 3400
2020-07-15 12:30 5.50 749 5410 (1972) 21 (1954) 632 84 114 177 191 310 521 662 1080 3400
2020-07-15 11:30 5.50 749 5410 (1972) 21 (1954) 632 84 114 177 191 310 521 662 1080 3400
2020-07-15 10:30 5.49 743 5410 (1972) 21 (1954) 632 84 114 177 191 310 521 662 1080 3400
2020-07-15 09:30 5.51 756 5410 (1972) 21 (1954) 632 84 114 177 191 310 521 662 1080 3400
2020-07-15 08:30 5.50 749 5410 (1972) 21 (1954) 632 84 114 177 191 310 521 662 1080 3400
2020-07-15 07:30 5.51 756 5410 (1972) 21 (1954) 632 84 114 177 191 310 521 662 1080 3400
2020-07-15 06:30 5.51 756 5410 (1972) 21 (1954) 632 84 114 177 191 310 521 662 1080 3400
2020-07-15 05:30 5.50 749 5410 (1972) 21 (1954) 632 84 114 177 191 310 521 662 1080 3400
2020-07-15 04:30 5.50 749 5410 (1972) 21 (1954) 632 84 114 177 191 310 521 662 1080 3400
2020-07-15 03:30 5.51 756 5410 (1972) 21 (1954) 632 84 114 177 191 310 521 662 1080 3400
2020-07-15 02:30 5.52 762 5410 (1972) 21 (1954) 632 84 114 177 191 310 521 662 1080 3400
2020-07-15 01:30 5.51 756 5410 (1972) 21 (1954) 632 84 114 177 191 310 521 662 1080 3400
2020-07-15 00:30 5.51 756 5410 (1972) 21 (1954) 632 84 114 177 191 310 521 662 1080 3400
2020-07-14 23:30 5.51 756 12900 (1958) 23 (1954) 761 87 118 181 192 314 466 563 986 3900
2020-07-14 22:30 5.51 756 12900 (1958) 23 (1954) 761 87 118 181 192 314 466 563 986 3900
2020-07-14 21:30 5.51 756 12900 (1958) 23 (1954) 761 87 118 181 192 314 466 563 986 3900
2020-07-14 20:30 5.51 756 12900 (1958) 23 (1954) 761 87 118 181 192 314 466 563 986 3900
2020-07-14 19:30 5.52 762 12900 (1958) 23 (1954) 761 87 118 181 192 314 466 563 986 3900
2020-07-14 18:30 5.52 762 12900 (1958) 23 (1954) 761 87 118 181 192 314 466 563 986 3900
2020-07-14 17:30 5.52 762 12900 (1958) 23 (1954) 761 87 118 181 192 314 466 563 986 3900
2020-07-14 16:30 5.53 768 12900 (1958) 23 (1954) 761 87 118 181 192 314 466 563 986 3900
2020-07-14 15:30 5.54 775 12900 (1958) 23 (1954) 761 87 118 181 192 314 466 563 986 3900
2020-07-14 14:30 5.54 775 12900 (1958) 23 (1954) 761 87 118 181 192 314 466 563 986 3900
2020-07-14 13:30 5.54 775 12900 (1958) 23 (1954) 761 87 118 181 192 314 466 563 986 3900
2020-07-14 12:30 5.55 781 12900 (1958) 23 (1954) 761 87 118 181 192 314 466 563 986 3900
2020-07-14 11:30 5.55 781 12900 (1958) 23 (1954) 761 87 118 181 192 314 466 563 986 3900
2020-07-14 10:30 5.56 788 12900 (1958) 23 (1954) 761 87 118 181 192 314 466 563 986 3900
2020-07-14 09:30 5.56 788 12900 (1958) 23 (1954) 761 87 118 181 192 314 466 563 986 3900
2020-07-14 08:30 5.56 788 12900 (1958) 23 (1954) 761 87 118 181 192 314 466 563 986 3900
2020-07-14 07:30 5.56 788 12900 (1958) 23 (1954) 761 87 118 181 192 314 466 563 986 3900
2020-07-14 06:30 5.56 788 12900 (1958) 23 (1954) 761 87 118 181 192 314 466 563 986 3900
2020-07-14 05:30 5.58 801 12900 (1958) 23 (1954) 761 87 118 181 192 314 466 563 986 3900
2020-07-14 04:30 5.58 801 12900 (1958) 23 (1954) 761 87 118 181 192 314 466 563 986 3900
2020-07-14 03:30 5.58 801 12900 (1958) 23 (1954) 761 87 118 181 192 314 466 563 986 3900
2020-07-14 02:30 5.58 801 12900 (1958) 23 (1954) 761 87 118 181 192 314 466 563 986 3900
2020-07-14 01:30 5.57 794 12900 (1958) 23 (1954) 761 87 118 181 192 314 466 563 986 3900
2020-07-14 00:30 5.59 807 12900 (1958) 23 (1954) 761 87 118 181 192 314 466 563 986 3900
2020-07-13 23:30 5.59 807 22000 (1958) 25 (1954) 730 92 125 171 203 294 486 551 897 2690
2020-07-13 22:30 5.59 807 22000 (1958) 25 (1954) 730 92 125 171 203 294 486 551 897 2690
2020-07-13 21:30 5.60 814 22000 (1958) 25 (1954) 730 92 125 171 203 294 486 551 897 2690
2020-07-13 20:30 5.61 821 22000 (1958) 25 (1954) 730 92 125 171 203 294 486 551 897 2690
2020-07-13 19:30 5.60 814 22000 (1958) 25 (1954) 730 92 125 171 203 294 486 551 897 2690
2020-07-13 18:30 5.61 821 22000 (1958) 25 (1954) 730 92 125 171 203 294 486 551 897 2690
2020-07-13 17:30 5.62 827 22000 (1958) 25 (1954) 730 92 125 171 203 294 486 551 897 2690
2020-07-13 16:30 5.62 827 22000 (1958) 25 (1954) 730 92 125 171 203 294 486 551 897 2690
2020-07-13 15:30 5.63 834 22000 (1958) 25 (1954) 730 92 125 171 203 294 486 551 897 2690
2020-07-13 14:30 5.62 827 22000 (1958) 25 (1954) 730 92 125 171 203 294 486 551 897 2690
2020-07-13 13:30 5.63 834 22000 (1958) 25 (1954) 730 92 125 171 203 294 486 551 897 2690
2020-07-13 12:30 5.64 841 22000 (1958) 25 (1954) 730 92 125 171 203 294 486 551 897 2690
2020-07-13 11:30 5.64 841 22000 (1958) 25 (1954) 730 92 125 171 203 294 486 551 897 2690
2020-07-13 10:30 5.64 841 22000 (1958) 25 (1954) 730 92 125 171 203 294 486 551 897 2690
2020-07-13 09:30 5.65 848 22000 (1958) 25 (1954) 730 92 125 171 203 294 486 551 897 2690
2020-07-13 08:30 5.67 861 22000 (1958) 25 (1954) 730 92 125 171 203 294 486 551 897 2690
2020-07-13 07:30 5.66 855 22000 (1958) 25 (1954) 730 92 125 171 203 294 486 551 897 2690
2020-07-13 06:30 5.67 861 22000 (1958) 25 (1954) 730 92 125 171 203 294 486 551 897 2690
2020-07-13 05:30 5.68 868 22000 (1958) 25 (1954) 730 92 125 171 203 294 486 551 897 2690
2020-07-13 04:30 5.66 855 22000 (1958) 25 (1954) 730 92 125 171 203 294 486 551 897 2690
2020-07-13 03:30 5.68 868 22000 (1958) 25 (1954) 730 92 125 171 203 294 486 551 897 2690
2020-07-13 02:30 5.67 861 22000 (1958) 25 (1954) 730 92 125 171 203 294 486 551 897 2690
2020-07-13 01:30 5.68 868 22000 (1958) 25 (1954) 730 92 125 171 203 294 486 551 897 2690
2020-07-13 00:30 5.69 875 22000 (1958) 25 (1954) 730 92 125 171 203 294 486 551 897 2690
2020-07-12 23:30 5.69 875 5330 (2015) 27 (1954) 534 95 132 172 213 301 504 601 1060 2070
2020-07-12 22:30 5.70 882 5330 (2015) 27 (1954) 534 95 132 172 213 301 504 601 1060 2070
2020-07-12 21:30 5.70 882 5330 (2015) 27 (1954) 534 95 132 172 213 301 504 601 1060 2070
2020-07-12 20:30 5.72 896 5330 (2015) 27 (1954) 534 95 132 172 213 301 504 601 1060 2070
2020-07-12 19:30 5.71 889 5330 (2015) 27 (1954) 534 95 132 172 213 301 504 601 1060 2070
2020-07-12 18:30 5.71 889 5330 (2015) 27 (1954) 534 95 132 172 213 301 504 601 1060 2070
2020-07-12 17:30 5.72 896 5330 (2015) 27 (1954) 534 95 132 172 213 301 504 601 1060 2070
2020-07-12 16:30 5.73 903 5330 (2015) 27 (1954) 534 95 132 172 213 301 504 601 1060 2070
2020-07-12 15:30 5.73 903 5330 (2015) 27 (1954) 534 95 132 172 213 301 504 601 1060 2070
2020-07-12 14:30 5.75 918 5330 (2015) 27 (1954) 534 95 132 172 213 301 504 601 1060 2070
2020-07-12 13:30 5.75 918 5330 (2015) 27 (1954) 534 95 132 172 213 301 504 601 1060 2070
2020-07-12 12:30 5.76 925 5330 (2015) 27 (1954) 534 95 132 172 213 301 504 601 1060 2070
2020-07-12 11:30 5.78 939 5330 (2015) 27 (1954) 534 95 132 172 213 301 504 601 1060 2070
2020-07-12 10:30 5.78 939 5330 (2015) 27 (1954) 534 95 132 172 213 301 504 601 1060 2070
2020-07-12 09:30 5.81 962 5330 (2015) 27 (1954) 534 95 132 172 213 301 504 601 1060 2070
2020-07-12 08:30 5.81 962 5330 (2015) 27 (1954) 534 95 132 172 213 301 504 601 1060 2070
2020-07-12 07:30 5.83 976 5330 (2015) 27 (1954) 534 95 132 172 213 301 504 601 1060 2070
2020-07-12 06:30 5.84 984 5330 (2015) 27 (1954) 534 95 132 172 213 301 504 601 1060 2070
2020-07-12 05:30 5.87 1010 5330 (2015) 27 (1954) 534 95 132 172 213 301 504 601 1060 2070
2020-07-12 04:30 5.89 1020 5330 (2015) 27 (1954) 534 95 132 172 213 301 504 601 1060 2070
2020-07-12 03:30 5.90 1030 5330 (2015) 27 (1954) 534 95 132 172 213 301 504 601 1060 2070
2020-07-12 02:30 5.91 1040 5330 (2015) 27 (1954) 534 95 132 172 213 301 504 601 1060 2070
2020-07-12 00:30 5.91 1040 5330 (2015) 27 (1954) 534 95 132 172 213 301 504 601 1060 2070

A total of 727 rows are displayed for years 1936 through 2018.